Time;durP1;ratioP1;P1;durP2;ratioP2;P2;SDS_P1;SDS_P2;PMS_P1;PMS_P2;Temp;Humidity;BMP_temperature;BMP_pressure;BME280_temperature;BME280_humidity;BME280_pressure;Samples;Min_cycle;Max_cycle;Signal;HPM_P1;HPM_P2
2022/03/29 00:00:41;;;;;;;;;;;;;;;15.64;34.61;99370.56;4489976;31;34168;-60
2022/03/29 00:03:09;;;;;;;;;;;;;;;15.51;34.90;99372.81;4492825;31;32856;-61
2022/03/29 00:05:38;;;;;;;;;;;;;;;15.61;34.76;99369.00;4495007;31;32930;-61
2022/03/29 00:08:06;;;;;;;;;;;;;;;15.70;34.41;99367.25;4492026;31;34513;-61
2022/03/29 00:10:34;;;;;;;;;;;;;;;15.72;34.47;99372.50;4486118;31;32474;-61
2022/03/29 00:13:03;;;;;;;;;;;;;;;15.66;34.77;99359.59;4488505;31;34244;-61
2022/03/29 00:15:30;;;;;;;;;;;;;;;15.57;35.09;99358.69;4488237;31;35468;-61
2022/03/29 00:22:32;;;;;;;;;;;;;;;15.72;34.41;99345.50;4491198;31;34502;-61
2022/03/29 00:25:00;;;;;;;;;;;;;;;15.73;34.25;99337.28;4492117;31;33115;-62
2022/03/29 00:27:27;;;;;;;;;;;;;;;15.80;34.18;99337.47;4485514;31;34216;-62
2022/03/29 00:29:55;;;;;;;;;;;;;;;15.71;34.35;99328.47;4493601;31;34084;-62
2022/03/29 00:32:23;;;;;;;;;;;;;;;15.76;34.18;99325.28;4488270;31;33721;-62
2022/03/29 00:34:50;;;;;;;;;;;;;;;15.71;34.17;99320.38;4487105;31;34053;-62
2022/03/29 00:37:18;;;;;;;;;;;;;;;15.65;34.40;99312.88;4498557;31;32696;-63
2022/03/29 00:39:46;;;;;;;;;;;;;;;15.30;35.42;99322.72;4491145;31;35427;-64
2022/03/29 00:42:13;;;;;;;;;;;;;;;15.64;34.52;99321.16;4484583;31;33771;-62
2022/03/29 00:44:41;;;;;;;;;;;;;;;15.22;35.57;99319.12;4486507;31;35346;-62
2022/03/29 00:47:09;;;;;;;;;;;;;;;15.48;34.93;99311.94;4485300;31;33355;-62
2022/03/29 00:49:36;;;;;;;;;;;;;;;15.55;34.92;99306.75;4489125;31;34563;-63
2022/03/29 00:52:06;;;;;;;;;;;;;;;15.60;34.45;99304.41;4481260;31;33416;-62
2022/03/29 00:54:38;;;;;;;;;;;;;;;15.53;34.61;99306.87;4485473;31;34092;-62
2022/03/29 00:57:09;;;;;;;;;;;;;;;15.48;34.83;99301.13;4481452;31;34452;-62
2022/03/29 00:59:39;;;;;;;;;;;;;;;15.36;34.85;99300.53;4483835;31;33341;-63
2022/03/29 01:02:07;;;;;;;;;;;;;;;15.22;35.25;99295.72;4483407;31;32881;-62
2022/03/29 01:04:39;;;;;;;;;;;;;;;15.19;35.24;99295.16;4482287;31;32572;-63
2022/03/29 01:07:08;;;;;;;;;;;;;;;15.16;35.32;99290.09;4483142;31;33050;-62
2022/03/29 01:09:37;;;;;;;;;;;;;;;14.79;36.24;99289.22;4488393;31;35443;-62
2022/03/29 01:12:06;;;;;;;;;;;;;;;14.95;35.95;99290.38;4470204;32;32529;-62
2022/03/29 01:14:35;;;;;;;;;;;;;;;15.07;35.85;99290.00;4488825;31;33283;-62
2022/03/29 01:19:54;;;;;;;;;;;;;;;14.93;36.14;99292.37;4471810;31;32512;-61
2022/03/29 01:22:23;;;;;;;;;;;;;;;14.83;36.42;99287.06;4483941;31;32390;-62
2022/03/29 01:24:53;;;;;;;;;;;;;;;14.82;36.39;99279.97;4490029;31;33021;-63
2022/03/29 01:27:23;;;;;;;;;;;;;;;14.99;36.34;99272.91;4469006;32;32602;-62
2022/03/29 01:29:56;;;;;;;;;;;;;;;14.63;36.59;99272.88;4481382;31;34230;-62
2022/03/29 01:32:28;;;;;;;;;;;;;;;14.20;37.11;99286.00;4483053;31;33413;-62
2022/03/29 01:35:02;;;;;;;;;;;;;;;14.45;37.02;99280.91;4477753;31;33962;-63
2022/03/29 01:37:32;;;;;;;;;;;;;;;14.75;36.20;99281.59;4483580;31;35684;-61
2022/03/29 01:40:12;;;;;;;;;;;;;;;14.87;35.79;99273.16;4473149;31;32894;-62
2022/03/29 01:42:48;;;;;;;;;;;;;;;14.74;35.95;99263.75;4482904;31;33360;-62
2022/03/29 01:45:19;;;;;;;;;;;;;;;14.39;36.92;99255.44;4489463;31;33338;-63
2022/03/29 01:47:48;;;;;;;;;;;;;;;14.08;37.82;99254.87;4482174;31;33080;-62
2022/03/29 01:50:16;;;;;;;;;;;;;;;14.14;37.70;99248.91;4484200;31;34322;-62
2022/03/29 01:52:46;;;;;;;;;;;;;;;14.41;37.12;99239.13;4490441;31;32364;-62
2022/03/29 01:55:16;;;;;;;;;;;;;;;14.19;37.93;99240.41;4481800;31;33338;-62
2022/03/29 01:57:46;;;;;;;;;;;;;;;14.13;38.29;99230.25;4491922;31;33703;-61
2022/03/29 02:00:32;;;;;;;;;;;;;;;14.19;37.78;99237.72;4487032;31;33672;-62
2022/03/29 02:03:04;;;;;;;;;;;;;;;14.13;38.22;99241.00;4483054;31;32716;-63
2022/03/29 02:05:34;;;;;;;;;;;;;;;14.52;37.22;99230.87;4482438;31;33152;-62
2022/03/29 02:08:04;;;;;;;;;;;;;;;13.93;38.08;99227.66;4493337;31;35077;-62
2022/03/29 02:10:33;;;;;;;;;;;;;;;14.37;37.29;99222.41;4490079;31;34001;-63
2022/03/29 02:13:02;;;;;;;;;;;;;;;14.11;38.03;99216.06;4485933;31;33599;-62
2022/03/29 02:15:31;;;;;;;;;;;;;;;14.09;37.78;99210.84;4485162;31;34763;-63
2022/03/29 02:18:02;;;;;;;;;;;;;;;13.96;38.33;99216.59;4483293;31;33852;-62
2022/03/29 02:20:38;;;;;;;;;;;;;;;14.41;36.93;99212.19;4485859;31;34197;-61
2022/03/29 02:23:09;;;;;;;;;;;;;;;13.96;37.85;99208.53;4483506;31;34345;-61
2022/03/29 02:25:37;;;;;;;;;;;;;;;14.13;37.50;99208.72;4487080;31;32730;-61
2022/03/29 02:28:05;;;;;;;;;;;;;;;14.16;37.73;99203.03;4483331;31;36090;-61
2022/03/29 02:30:35;;;;;;;;;;;;;;;14.13;37.80;99197.94;4485384;31;35554;-62
2022/03/29 02:33:05;;;;;;;;;;;;;;;14.06;38.44;99202.22;4483101;31;32680;-62
2022/03/29 02:35:33;;;;;;;;;;;;;;;14.32;37.40;99202.38;4481311;31;35480;-62
2022/03/29 02:38:01;;;;;;;;;;;;;;;14.33;37.25;99199.50;4496487;31;34404;-62
2022/03/29 02:40:30;;;;;;;;;;;;;;;14.16;37.73;99201.19;4488589;31;35627;-61
2022/03/29 02:42:59;;;;;;;;;;;;;;;14.11;37.81;99198.06;4487106;31;32483;-61
2022/03/29 02:45:27;;;;;;;;;;;;;;;14.08;37.80;99203.75;4487363;31;33991;-62
2022/03/29 02:47:56;;;;;;;;;;;;;;;14.36;37.16;99198.38;4485068;31;34408;-63
2022/03/29 02:50:25;;;;;;;;;;;;;;;14.27;37.53;99196.56;4485993;31;34562;-62
2022/03/29 02:52:57;;;;;;;;;;;;;;;13.76;38.63;99198.81;4483562;31;32511;-61
2022/03/29 02:55:29;;;;;;;;;;;;;;;14.04;38.06;99194.31;4486523;31;34092;-62
2022/03/29 02:57:57;;;;;;;;;;;;;;;14.13;37.89;99188.03;4494556;31;34148;-61
2022/03/29 03:00:26;;;;;;;;;;;;;;;14.19;37.64;99186.56;4482064;31;35313;-62
2022/03/29 03:02:55;;;;;;;;;;;;;;;14.28;37.33;99185.66;4482589;31;33126;-61
2022/03/29 03:05:26;;;;;;;;;;;;;;;14.34;37.18;99187.72;4481980;31;34241;-62
2022/03/29 03:07:54;;;;;;;;;;;;;;;14.37;37.19;99184.72;4482247;31;34267;-62
2022/03/29 03:10:25;;;;;;;;;;;;;;;14.17;37.66;99189.41;4483797;31;34267;-62
2022/03/29 03:12:54;;;;;;;;;;;;;;;14.06;38.11;99178.00;4490232;31;33225;-61
2022/03/29 03:15:24;;;;;;;;;;;;;;;14.16;38.01;99186.88;4481224;31;35369;-62
2022/03/29 03:17:55;;;;;;;;;;;;;;;14.37;37.37;99179.34;4484303;31;33172;-61
2022/03/29 03:20:26;;;;;;;;;;;;;;;14.37;37.15;99184.72;4483897;31;34262;-62
2022/03/29 03:22:56;;;;;;;;;;;;;;;14.28;37.32;99182.09;4481935;31;34441;-62
2022/03/29 03:25:26;;;;;;;;;;;;;;;14.12;37.70;99180.94;4484636;31;33034;-61
2022/03/29 03:27:55;;;;;;;;;;;;;;;13.95;38.14;99179.06;4482390;31;33352;-61
2022/03/29 03:30:25;;;;;;;;;;;;;;;13.98;38.03;99176.06;4484065;31;33242;-61
2022/03/29 03:32:54;;;;;;;;;;;;;;;14.04;38.07;99175.47;4484387;31;34608;-62
2022/03/29 03:35:23;;;;;;;;;;;;;;;13.98;38.40;99170.69;4490177;31;32924;-60
2022/03/29 03:37:54;;;;;;;;;;;;;;;13.78;39.03;99161.88;4483307;31;34065;-63
2022/03/29 03:40:24;;;;;;;;;;;;;;;14.14;38.09;99172.72;4490364;31;34506;-63
2022/03/29 03:42:55;;;;;;;;;;;;;;;13.97;38.59;99166.31;4481935;31;33882;-62
2022/03/29 03:45:24;;;;;;;;;;;;;;;14.11;38.08;99163.09;4489726;31;35205;-61
2022/03/29 03:47:55;;;;;;;;;;;;;;;14.32;37.35;99159.28;4496743;31;35421;-62
2022/03/29 03:50:26;;;;;;;;;;;;;;;14.44;37.12;99152.66;4494813;31;34611;-62
2022/03/29 03:52:55;;;;;;;;;;;;;;;14.43;37.53;99156.34;4487847;31;32658;-63
2022/03/29 03:55:23;;;;;;;;;;;;;;;14.50;37.28;99157.44;4482290;31;35504;-63
2022/03/29 03:57:51;;;;;;;;;;;;;;;14.63;36.80;99149.84;4484692;31;33230;-62
2022/03/29 04:00:21;;;;;;;;;;;;;;;14.58;36.78;99151.31;4484613;31;33343;-63
2022/03/29 04:02:50;;;;;;;;;;;;;;;14.63;36.46;99152.53;4487832;31;33799;-61
2022/03/29 04:05:21;;;;;;;;;;;;;;;14.81;36.33;99147.13;4488820;31;37121;-61
2022/03/29 04:07:50;;;;;;;;;;;;;;;14.87;36.07;99146.50;4488866;31;34611;-61
2022/03/29 04:10:19;;;;;;;;;;;;;;;14.84;36.17;99152.22;4487301;31;34209;-62
2022/03/29 04:12:50;;;;;;;;;;;;;;;14.78;36.30;99147.44;4495835;31;32650;-61
2022/03/29 04:15:20;;;;;;;;;;;;;;;14.71;36.42;99145.53;4490156;31;34010;-61
2022/03/29 04:17:50;;;;;;;;;;;;;;;14.75;36.01;99136.97;4487154;31;34524;-63
2022/03/29 04:20:19;;;;;;;;;;;;;;;14.68;36.33;99141.31;4481171;31;35196;-62
2022/03/29 04:22:48;;;;;;;;;;;;;;;14.58;36.61;99136.00;4487654;31;32171;-62
2022/03/29 04:25:17;;;;;;;;;;;;;;;14.68;36.37;99142.16;4489663;31;33639;-62
2022/03/29 04:27:47;;;;;;;;;;;;;;;14.78;36.03;99135.81;4488981;31;33148;-62
2022/03/29 04:30:17;;;;;;;;;;;;;;;14.84;36.05;99135.22;4488158;31;34491;-62
2022/03/29 04:32:48;;;;;;;;;;;;;;;14.97;35.82;99140.19;4483175;31;34375;-62
2022/03/29 04:35:18;;;;;;;;;;;;;;;14.95;35.89;99140.31;4480632;31;33389;-63
2022/03/29 04:37:49;;;;;;;;;;;;;;;14.96;35.90;99142.03;4489358;31;34478;-62
2022/03/29 04:40:20;;;;;;;;;;;;;;;14.83;36.44;99144.28;4492733;31;33260;-61
2022/03/29 04:42:52;;;;;;;;;;;;;;;15.07;35.79;99135.53;4494267;31;33580;-62
2022/03/29 04:45:23;;;;;;;;;;;;;;;15.06;35.85;99131.16;4489583;31;34392;-62
2022/03/29 04:47:52;;;;;;;;;;;;;;;15.03;36.07;99132.31;4480552;31;35770;-61
2022/03/29 04:50:21;;;;;;;;;;;;;;;15.11;35.75;99126.97;4489210;31;32652;-62
2022/03/29 04:52:51;;;;;;;;;;;;;;;15.09;35.74;99123.59;4490448;31;32179;-63
2022/03/29 04:55:19;;;;;;;;;;;;;;;14.88;36.32;99120.41;4485864;31;33828;-61
2022/03/29 04:57:49;;;;;;;;;;;;;;;14.98;35.95;99123.84;4482446;31;34442;-62
2022/03/29 05:00:20;;;;;;;;;;;;;;;14.88;36.16;99115.03;4494340;31;33861;-62
2022/03/29 05:02:50;;;;;;;;;;;;;;;14.92;36.11;99119.09;4486073;31;33323;-62
2022/03/29 05:05:20;;;;;;;;;;;;;;;14.88;36.26;99117.72;4485320;31;35354;-61
2022/03/29 05:07:49;;;;;;;;;;;;;;;14.77;36.47;99108.06;4482118;31;33914;-62
2022/03/29 05:10:18;;;;;;;;;;;;;;;14.37;37.44;99113.91;4482659;31;33152;-62
2022/03/29 05:12:48;;;;;;;;;;;;;;;14.61;36.89;99110.63;4497042;31;32142;-63
2022/03/29 05:15:19;;;;;;;;;;;;;;;14.62;36.97;99120.38;4490350;31;33158;-61
2022/03/29 05:17:48;;;;;;;;;;;;;;;14.31;37.86;99119.88;4486719;31;33332;-63
2022/03/29 05:20:19;;;;;;;;;;;;;;;14.38;37.71;99115.56;4493952;31;33432;-62
2022/03/29 05:22:52;;;;;;;;;;;;;;;14.50;37.48;99122.44;4483504;31;34098;-63
2022/03/29 05:25:24;;;;;;;;;;;;;;;14.40;37.95;99121.66;4487798;31;35018;-62
2022/03/29 05:27:57;;;;;;;;;;;;;;;14.08;38.87;99120.34;4483550;31;34302;-62
2022/03/29 05:30:39;;;;;;;;;;;;;;;14.35;38.41;99121.25;4484138;31;34257;-62
2022/03/29 05:33:10;;;;;;;;;;;;;;;14.56;37.60;99121.00;4484334;31;33971;-63
2022/03/29 05:35:39;;;;;;;;;;;;;;;14.87;37.31;99126.81;4489565;31;33888;-62
2022/03/29 05:38:07;;;;;;;;;;;;;;;15.48;36.20;99120.44;4491371;31;35220;-66
2022/03/29 05:40:34;;;;;;;;;;;;;;;16.39;34.39;99124.28;4485321;31;33288;-62
2022/03/29 05:43:03;;;;;;;;;;;;;;;16.76;33.75;99123.84;4489799;31;34027;-62
2022/03/29 05:45:31;;;;;;;;;;;;;;;16.66;33.93;99128.50;4485817;31;32996;-63
2022/03/29 05:50:46;;;;;;;;;;;;;;;16.54;34.10;99120.75;4490147;31;34447;-62
2022/03/29 05:53:15;;;;;;;;;;;;;;;16.40;34.63;99113.28;4494044;31;33553;-63
2022/03/29 05:55:42;;;;;;;;;;;;;;;16.45;34.53;99124.47;4487618;31;33954;-63
2022/03/29 05:58:11;;;;;;;;;;;;;;;16.26;35.43;99127.47;4489483;31;32803;-63
2022/03/29 06:00:39;;;;;;;;;;;;;;;16.57;34.88;99129.53;4492477;31;34669;-63
2022/03/29 06:03:08;;;;;;;;;;;;;;;16.68;34.48;99126.50;4490163;31;32507;-63
2022/03/29 06:05:42;;;;;;;;;;;;;;;16.67;34.70;99122.13;4491751;31;34105;-63
2022/03/29 06:08:11;;;;;;;;;;;;;;;16.67;34.85;99122.13;4493017;31;34737;-63
2022/03/29 06:10:39;;;;;;;;;;;;;;;16.69;34.71;99122.78;4485205;31;35416;-63
2022/03/29 06:13:08;;;;;;;;;;;;;;;16.83;34.44;99124.84;4482121;31;33335;-62
2022/03/29 06:15:41;;;;;;;;;;;;;;;16.93;34.37;99122.81;4487602;31;34355;-63
2022/03/29 06:18:09;;;;;;;;;;;;;;;17.08;34.63;99122.09;4487788;31;32961;-63
2022/03/29 06:20:37;;;;;;;;;;;;;;;17.25;34.29;99120.22;4494163;31;34601;-62
2022/03/29 06:23:06;;;;;;;;;;;;;;;17.37;34.14;99124.25;4490493;31;33400;-62
2022/03/29 06:25:35;;;;;;;;;;;;;;;17.61;33.64;99116.03;4484300;31;33482;-62
2022/03/29 06:28:04;;;;;;;;;;;;;;;17.36;34.44;99106.31;4488052;31;34342;-61
2022/03/29 06:30:32;;;;;;;;;;;;;;;17.70;33.59;99112.28;4483636;31;34277;-61
2022/03/29 06:33:02;;;;;;;;;;;;;;;18.01;33.08;99105.22;4487078;31;32673;-64
2022/03/29 06:35:31;;;;;;;;;;;;;;;18.25;32.93;99098.81;4486593;31;32889;-63
2022/03/29 06:38:00;;;;;;;;;;;;;;;18.33;32.87;99096.91;4486716;31;34066;-64
2022/03/29 06:40:28;;;;;;;;;;;;;;;18.58;32.36;99094.81;4486440;31;34524;-64
2022/03/29 06:43:00;;;;;;;;;;;;;;;18.82;31.88;99096.53;4490527;31;34728;-63
2022/03/29 06:45:28;;;;;;;;;;;;;;;18.26;32.12;99101.34;4491676;31;33883;-64
2022/03/29 06:47:58;;;;;;;;;;;;;;;18.98;31.01;99100.97;4488811;31;34455;-63
2022/03/29 06:50:26;;;;;;;;;;;;;;;19.19;31.01;99096.69;4484153;31;34337;-62
2022/03/29 06:52:55;;;;;;;;;;;;;;;19.26;31.14;99098.47;4487755;31;33682;-63
2022/03/29 06:55:28;;;;;;;;;;;;;;;19.23;31.12;99100.69;4484682;31;34474;-63
2022/03/29 06:58:07;;;;;;;;;;;;;;;19.17;30.99;99091.44;4498234;31;34642;-64
2022/03/29 07:00:42;;;;;;;;;;;;;;;19.57;30.30;99094.72;4487649;31;33335;-64
2022/03/29 07:03:20;;;;;;;;;;;;;;;19.61;30.27;99092.47;4484212;31;33719;-66
2022/03/29 07:05:55;;;;;;;;;;;;;;;19.16;30.96;99092.47;4489672;31;32601;-64
2022/03/29 07:08:32;;;;;;;;;;;;;;;19.69;30.15;99095.97;4480819;31;34421;-63
2022/03/29 07:11:17;;;;;;;;;;;;;;;19.77;29.84;99093.16;4487040;31;33942;-66
2022/03/29 07:13:53;;;;;;;;;;;;;;;19.65;29.84;99091.94;4483967;31;33335;-64
2022/03/29 07:16:23;;;;;;;;;;;;;;;19.85;29.17;99092.19;4484734;31;33744;-64
2022/03/29 07:18:58;;;;;;;;;;;;;;;19.97;29.49;99087.13;4483334;31;34457;-64
2022/03/29 07:21:39;;;;;;;;;;;;;;;19.54;29.65;99095.09;4492157;31;36465;-63
2022/03/29 07:24:20;;;;;;;;;;;;;;;19.83;29.34;99087.97;4496951;31;33490;-64
2022/03/29 07:27:04;;;;;;;;;;;;;;;19.86;29.51;99088.44;4500101;31;34326;-65
2022/03/29 07:29:44;;;;;;;;;;;;;;;19.43;29.77;99095.56;4493381;31;33109;-65
2022/03/29 07:32:29;;;;;;;;;;;;;;;20.11;29.19;99083.50;4490235;31;33096;-64
2022/03/29 07:35:10;;;;;;;;;;;;;;;20.45;29.37;99090.12;4483752;31;33508;-65
2022/03/29 07:37:52;;;;;;;;;;;;;;;20.58;28.63;99084.03;4484011;31;32959;-63
2022/03/29 07:40:29;;;;;;;;;;;;;;;20.83;27.50;99084.41;4486297;31;32993;-66
2022/03/29 07:42:59;;;;;;;;;;;;;;;20.43;28.76;99081.31;4490104;31;35243;-64
2022/03/29 07:45:32;;;;;;;;;;;;;;;20.88;28.25;99079.25;4477187;31;34604;-64
2022/03/29 07:48:09;;;;;;;;;;;;;;;20.29;28.80;99082.22;4484195;32;33252;-63
2022/03/29 07:51:11;;;;;;;;;;;;;;;20.83;28.36;99077.09;4490504;31;33423;-64
2022/03/29 07:53:47;;;;;;;;;;;;;;;21.48;27.31;99077.78;4493586;31;34192;-64
2022/03/29 07:56:31;;;;;;;;;;;;;;;21.70;27.37;99070.38;4488446;31;33189;-64
2022/03/29 07:59:14;;;;;;;;;;;;;;;22.35;26.10;99072.69;4484501;31;35036;-64
2022/03/29 08:01:54;;;;;;;;;;;;;;;22.95;25.01;99071.72;4489089;31;34635;-63
2022/03/29 08:04:31;;;;;;;;;;;;;;;23.80;24.01;99073.63;4483716;31;33726;-65
2022/03/29 08:07:13;;;;;;;;;;;;;;;24.31;23.47;99070.81;4485537;31;33824;-64
2022/03/29 08:09:49;;;;;;;;;;;;;;;24.68;22.87;99061.97;4492554;31;34066;-63
2022/03/29 08:12:26;;;;;;;;;;;;;;;25.09;22.71;99058.66;4487721;31;33295;-64
2022/03/29 08:14:59;;;;;;;;;;;;;;;25.46;22.02;99061.47;4491343;31;33045;-63
2022/03/29 08:17:48;;;;;;;;;;;;;;;25.80;20.94;99060.00;4490677;31;33641;-62
2022/03/29 08:20:29;;;;;;;;;;;;;;;25.99;20.39;99055.37;4483065;31;33150;-63
2022/03/29 08:23:09;;;;;;;;;;;;;;;26.18;20.80;99059.72;4484565;31;34223;-62
2022/03/29 08:25:52;;;;;;;;;;;;;;;26.21;20.92;99051.03;4486037;31;34239;-61
2022/03/29 08:28:24;;;;;;;;;;;;;;;26.21;20.96;99053.78;4491585;31;32310;-62
2022/03/29 08:31:05;;;;;;;;;;;;;;;26.30;20.38;99053.47;4488267;31;33085;-62
2022/03/29 08:33:47;;;;;;;;;;;;;;;26.31;19.09;99050.47;4495109;31;34167;-62
2022/03/29 08:36:27;;;;;;;;;;;;;;;26.18;20.06;99048.75;4485476;31;34242;-62
2022/03/29 08:38:59;;;;;;;;;;;;;;;25.85;19.17;99049.22;4485271;31;33375;-62
2022/03/29 08:41:32;;;;;;;;;;;;;;;26.10;19.28;99038.13;4495048;31;34447;-63
2022/03/29 08:44:03;;;;;;;;;;;;;;;25.51;19.48;99040.53;4484883;31;34292;-61
2022/03/29 08:46:39;;;;;;;;;;;;;;;24.68;20.83;99038.16;4473180;32;35517;-62
2022/03/29 08:49:12;;;;;;;;;;;;;;;25.29;19.90;99039.31;4495875;31;33522;-64
2022/03/29 08:51:45;;;;;;;;;;;;;;;25.04;20.03;99042.06;4484767;31;33317;-62
2022/03/29 08:54:25;;;;;;;;;;;;;;;24.92;20.16;99041.16;4487908;31;33568;-62
2022/03/29 08:57:00;;;;;;;;;;;;;;;24.31;20.57;99034.44;4487558;31;34253;-61
2022/03/29 08:59:29;;;;;;;;;;;;;;;24.46;20.68;99031.41;4492489;31;33797;-60
2022/03/29 09:02:03;;;;;;;;;;;;;;;24.18;20.88;99028.00;4492268;31;34296;-61
2022/03/29 09:04:33;;;;;;;;;;;;;;;24.16;20.36;99023.81;4481059;31;35325;-61
2022/03/29 09:07:08;;;;;;;;;;;;;;;24.48;20.23;99027.41;4491639;31;33275;-61
2022/03/29 09:09:54;;;;;;;;;;;;;;;24.37;20.63;99025.34;4487033;31;32407;-60
2022/03/29 09:12:27;;;;;;;;;;;;;;;24.57;20.89;99020.59;4479060;31;34200;-61
2022/03/29 09:14:57;;;;;;;;;;;;;;;24.47;21.39;99025.72;4487972;31;34120;-61
2022/03/29 09:17:38;;;;;;;;;;;;;;;24.42;21.01;99013.78;4488086;31;34017;-61
2022/03/29 09:20:21;;;;;;;;;;;;;;;25.08;20.68;99011.28;4487103;31;34228;-60
2022/03/29 09:22:52;;;;;;;;;;;;;;;24.86;20.94;99008.13;4486780;31;32928;-62
2022/03/29 09:25:23;;;;;;;;;;;;;;;25.40;20.20;99015.81;4485845;31;35413;-61
2022/03/29 09:27:57;;;;;;;;;;;;;;;25.07;20.46;99006.88;4487681;31;34554;-61
2022/03/29 09:30:28;;;;;;;;;;;;;;;24.99;20.28;99009.91;4484477;31;33528;-60
2022/03/29 09:33:05;;;;;;;;;;;;;;;25.14;20.03;99004.09;4484785;31;32314;-61
2022/03/29 09:35:40;;;;;;;;;;;;;;;25.19;20.34;98998.75;4487145;31;35071;-62
2022/03/29 09:38:22;;;;;;;;;;;;;;;24.96;20.44;99002.13;4473589;31;34562;-62
2022/03/29 09:40:50;;;;;;;;;;;;;;;25.18;20.42;98999.84;4489532;31;34361;-62
2022/03/29 09:43:21;;;;;;;;;;;;;;;24.55;21.11;98998.09;4491751;31;34618;-62
2022/03/29 09:45:50;;;;;;;;;;;;;;;24.39;21.15;98993.13;4480919;31;33070;-63
2022/03/29 09:48:40;;;;;;;;;;;;;;;25.07;20.74;98993.19;4485339;31;32976;-62
2022/03/29 09:51:08;;;;;;;;;;;;;;;25.31;19.29;98990.62;4488411;31;33668;-65
2022/03/29 09:53:47;;;;;;;;;;;;;;;25.03;20.29;98988.37;4487719;31;35349;-64
2022/03/29 09:56:16;;;;;;;;;;;;;;;24.68;20.20;98986.19;4488463;31;34230;-63
2022/03/29 09:59:05;;;;;;;;;;;;;;;24.84;19.74;98985.59;4484071;31;35270;-63
2022/03/29 10:01:34;;;;;;;;;;;;;;;23.42;21.43;98987.78;4468263;31;32489;-64
2022/03/29 10:04:03;;;;;;;;;;;;;;;23.63;21.37;98983.94;4468313;31;34904;-65
2022/03/29 10:06:31;;;;;;;;;;;;;;;24.39;21.15;98976.72;4462828;31;34202;-62
2022/03/29 10:11:46;;;;;;;;;;;;;;;24.77;20.21;98970.31;4483244;31;32905;-64
2022/03/29 10:14:15;;;;;;;;;;;;;;;24.95;20.30;98959.41;4486713;31;34012;-63
2022/03/29 10:16:44;;;;;;;;;;;;;;;24.30;20.32;98953.44;4482851;31;33030;-62
2022/03/29 10:19:12;;;;;;;;;;;;;;;24.90;20.03;98952.94;4485661;31;33475;-63
2022/03/29 10:21:42;;;;;;;;;;;;;;;24.31;19.98;98947.78;4483734;31;33719;-63
2022/03/29 10:24:11;;;;;;;;;;;;;;;24.76;18.53;98947.59;4483274;31;32705;-63
2022/03/29 10:26:40;;;;;;;;;;;;;;;24.24;19.36;98936.06;4469843;31;33908;-63
2022/03/29 10:29:08;;;;;;;;;;;;;;;25.11;18.25;98936.06;4469256;31;33725;-63
2022/03/29 10:31:36;;;;;;;;;;;;;;;25.14;18.16;98935.66;4482349;31;32569;-63
2022/03/29 10:34:14;;;;;;;;;;;;;;;25.33;17.74;98934.56;4479003;31;33815;-64
2022/03/29 10:36:58;;;;;;;;;;;;;;;25.39;18.29;98924.56;4492886;31;34473;-64
2022/03/29 10:39:41;;;;;;;;;;;;;;;25.52;18.03;98910.72;4487776;31;34430;-64
2022/03/29 10:42:25;;;;;;;;;;;;;;;26.24;17.32;98915.34;4490716;31;33568;-63
2022/03/29 10:45:00;;;;;;;;;;;;;;;26.53;17.18;98904.53;4488318;31;35098;-65
2022/03/29 10:47:55;;;;;;;;;;;;;;;26.15;16.85;98909.38;4484154;31;35483;-64
2022/03/29 10:50:43;;;;;;;;;;;;;;;26.36;17.29;98905.22;4487872;31;34986;-65
2022/03/29 10:53:29;;;;;;;;;;;;;;;25.54;17.89;98899.50;4492550;31;32262;-63
2022/03/29 10:56:13;;;;;;;;;;;;;;;26.55;16.84;98896.87;4486507;31;33820;-64
2022/03/29 10:59:00;;;;;;;;;;;;;;;26.97;16.89;98886.59;4488869;31;33564;-63
2022/03/29 11:01:29;;;;;;;;;;;;;;;26.73;16.73;98880.31;4487670;31;34530;-63
2022/03/29 11:04:07;;;;;;;;;;;;;;;26.29;16.66;98874.31;4487446;31;32290;-65
2022/03/29 11:06:36;;;;;;;;;;;;;;;26.64;16.86;98874.34;4485899;31;33992;-62
2022/03/29 11:09:05;;;;;;;;;;;;;;;26.81;16.91;98870.88;4487679;31;34269;-62
2022/03/29 11:11:39;;;;;;;;;;;;;;;27.28;16.93;98863.34;4483749;31;34460;-64
2022/03/29 11:14:26;;;;;;;;;;;;;;;27.36;16.08;98854.72;4481136;31;34101;-63
2022/03/29 11:16:54;;;;;;;;;;;;;;;26.98;16.94;98852.56;4488011;31;35146;-60
2022/03/29 11:19:37;;;;;;;;;;;;;;;26.86;15.86;98841.59;4483597;31;35009;-61
2022/03/29 11:22:36;;;;;;;;;;;;;;;26.98;15.96;98836.09;4482407;31;34086;-61
2022/03/29 11:25:14;;;;;;;;;;;;;;;25.94;16.99;98827.66;4464555;31;34983;-61
2022/03/29 11:27:43;;;;;;;;;;;;;;;26.52;16.67;98817.78;4484771;31;32943;-62
2022/03/29 11:30:12;;;;;;;;;;;;;;;26.77;16.76;98818.34;4487286;31;34396;-61
2022/03/29 11:32:41;;;;;;;;;;;;;;;27.08;16.57;98819.81;4486359;31;35162;-63
2022/03/29 11:35:11;;;;;;;;;;;;;;;27.25;15.24;98816.31;4486157;31;33802;-62
2022/03/29 11:37:43;;;;;;;;;;;;;;;27.24;15.10;98818.22;4484100;31;34887;-61
2022/03/29 11:40:18;;;;;;;;;;;;;;;26.44;15.30;98816.22;4484051;31;33468;-61
2022/03/29 11:42:53;;;;;;;;;;;;;;;27.17;14.45;98801.06;4483750;31;33868;-61
2022/03/29 11:45:22;;;;;;;;;;;;;;;26.49;15.10;98794.44;4480450;31;34150;-62
2022/03/29 11:47:53;;;;;;;;;;;;;;;26.55;15.36;98798.09;4484149;31;33824;-64
2022/03/29 11:50:29;;;;;;;;;;;;;;;26.70;15.32;98792.94;4483742;31;34216;-61
2022/03/29 11:52:57;;;;;;;;;;;;;;;26.39;15.10;98792.28;4481608;31;34450;-63
2022/03/29 11:55:31;;;;;;;;;;;;;;;26.99;14.99;98782.84;4482953;31;34127;-62
2022/03/29 11:58:00;;;;;;;;;;;;;;;26.51;15.02;98781.28;4484021;31;34311;-61
2022/03/29 12:00:29;;;;;;;;;;;;;;;26.98;14.79;98775.69;4486894;31;33355;-62
2022/03/29 12:02:57;;;;;;;;;;;;;;;26.38;15.56;98776.88;4483147;31;33787;-66
2022/03/29 12:05:26;;;;;;;;;;;;;;;26.86;15.17;98772.97;4489791;31;33788;-66
2022/03/29 12:07:56;;;;;;;;;;;;;;;26.71;15.12;98768.03;4488746;31;34081;-66
2022/03/29 12:10:27;;;;;;;;;;;;;;;26.57;14.29;98772.09;4493088;31;34023;-63
2022/03/29 12:12:56;;;;;;;;;;;;;;;26.48;14.83;98760.69;4484194;31;34485;-63
2022/03/29 12:15:23;;;;;;;;;;;;;;;26.83;14.66;98761.66;4489850;31;33848;-63
2022/03/29 12:20:45;;;;;;;;;;;;;;;25.55;15.98;98761.44;4483827;31;34908;-65
2022/03/29 12:23:27;;;;;;;;;;;;;;;26.16;15.44;98762.97;4485654;31;34593;-63
2022/03/29 12:25:55;;;;;;;;;;;;;;;25.62;15.41;98740.28;4485997;31;33379;-63
2022/03/29 12:28:24;;;;;;;;;;;;;;;25.58;15.90;98747.28;4476379;31;34956;-63
2022/03/29 12:30:54;;;;;;;;;;;;;;;26.13;14.96;98730.53;4485821;31;33900;-63
2022/03/29 12:33:23;;;;;;;;;;;;;;;25.30;16.27;98737.00;4470197;31;33926;-63
2022/03/29 12:36:04;;;;;;;;;;;;;;;24.94;15.96;98736.00;4483388;31;33378;-63
2022/03/29 12:38:58;;;;;;;;;;;;;;;25.36;15.98;98730.59;4480240;31;33886;-63
2022/03/29 12:41:37;;;;;;;;;;;;;;;25.36;16.30;98733.34;4491031;31;33511;-64
2022/03/29 12:44:06;;;;;;;;;;;;;;;26.14;15.47;98721.22;4484602;31;35364;-66
2022/03/29 12:46:34;;;;;;;;;;;;;;;26.07;15.37;98715.03;4486353;31;34398;-60
2022/03/29 12:49:03;;;;;;;;;;;;;;;25.98;15.36;98719.22;4487119;31;34804;-61
2022/03/29 12:51:33;;;;;;;;;;;;;;;25.95;15.31;98706.81;4486630;31;35050;-62
2022/03/29 12:54:05;;;;;;;;;;;;;;;25.81;15.58;98704.56;4489882;31;34472;-64
2022/03/29 12:56:37;;;;;;;;;;;;;;;25.39;15.89;98702.72;4483984;31;33820;-63
2022/03/29 12:59:24;;;;;;;;;;;;;;;24.93;16.67;98698.78;4489972;31;33681;-65
2022/03/29 13:01:52;;;;;;;;;;;;;;;25.22;16.18;98696.25;4485573;31;34137;-63
2022/03/29 13:04:21;;;;;;;;;;;;;;;25.30;15.70;98691.28;4488478;31;34179;-64
2022/03/29 13:06:51;;;;;;;;;;;;;;;25.03;15.76;98692.72;4486855;31;31666;-65
2022/03/29 13:09:19;;;;;;;;;;;;;;;24.87;15.72;98681.38;4488077;31;33107;-64
2022/03/29 13:11:47;;;;;;;;;;;;;;;25.17;15.46;98688.75;4486922;31;35035;-65
2022/03/29 13:14:15;;;;;;;;;;;;;;;25.51;15.18;98673.44;4492117;31;34191;-69
2022/03/29 13:16:52;;;;;;;;;;;;;;;26.09;14.87;98669.00;4485759;31;33685;-65
2022/03/29 13:19:23;;;;;;;;;;;;;;;24.67;16.30;98669.88;4486686;31;33957;-64
2022/03/29 13:21:58;;;;;;;;;;;;;;;25.31;15.37;98673.78;4486066;31;33439;-63
2022/03/29 13:24:40;;;;;;;;;;;;;;;25.29;15.48;98669.59;4483499;31;35145;-64
2022/03/29 13:27:08;;;;;;;;;;;;;;;25.55;15.55;98668.31;4490676;31;32529;-63
2022/03/29 13:29:36;;;;;;;;;;;;;;;25.70;15.52;98670.56;4489748;31;33010;-64